sensor_id;sensor_type;location;lat;lon;timestamp;pressure;altitude;pressure_sealevel;temperature;humidity
60246;BME280;46107;53.356;-1.524;2023-05-12T00:00:31;99539.40;;;9.19;78.69
60246;BME280;46107;53.356;-1.524;2023-05-12T00:02:59;99539.80;;;10.24;75.64
60246;BME280;46107;53.356;-1.524;2023-05-12T00:05:25;99538.61;;;9.76;76.47
60246;BME280;46107;53.356;-1.524;2023-05-12T00:07:53;99542.02;;;9.99;76.30
60246;BME280;46107;53.356;-1.524;2023-05-12T00:10:20;99540.15;;;9.76;78.62
60246;BME280;46107;53.356;-1.524;2023-05-12T00:12:48;99542.13;;;9.30;79.68
60246;BME280;46107;53.356;-1.524;2023-05-12T00:15:16;99546.39;;;9.65;80.15
60246;BME280;46107;53.356;-1.524;2023-05-12T00:17:44;99545.45;;;10.07;76.98
60246;BME280;46107;53.356;-1.524;2023-05-12T00:20:13;99549.79;;;9.60;78.75
60246;BME280;46107;53.356;-1.524;2023-05-12T00:22:40;99550.86;;;9.19;80.91
60246;BME280;46107;53.356;-1.524;2023-05-12T00:25:08;99552.13;;;9.97;77.26
60246;BME280;46107;53.356;-1.524;2023-05-12T00:27:35;99553.43;;;10.31;77.26
60246;BME280;46107;53.356;-1.524;2023-05-12T00:30:03;99552.76;;;8.91;82.71
60246;BME280;46107;53.356;-1.524;2023-05-12T00:32:31;99557.26;;;9.90;78.29
60246;BME280;46107;53.356;-1.524;2023-05-12T00:34:58;99559.46;;;10.10;76.70
60246;BME280;46107;53.356;-1.524;2023-05-12T00:37:26;99562.76;;;10.33;76.87
60246;BME280;46107;53.356;-1.524;2023-05-12T00:39:54;99560.07;;;10.15;76.65
60246;BME280;46107;53.356;-1.524;2023-05-12T00:42:21;99559.22;;;10.71;74.55
60246;BME280;46107;53.356;-1.524;2023-05-12T00:44:50;99561.49;;;9.95;76.86
60246;BME280;46107;53.356;-1.524;2023-05-12T00:47:18;99558.11;;;10.71;74.78
60246;BME280;46107;53.356;-1.524;2023-05-12T00:49:46;99564.89;;;10.14;76.37
60246;BME280;46107;53.356;-1.524;2023-05-12T00:52:14;99565.99;;;9.39;80.51
60246;BME280;46107;53.356;-1.524;2023-05-12T00:54:42;99565.53;;;8.71;81.93
60246;BME280;46107;53.356;-1.524;2023-05-12T00:57:11;99570.16;;;8.59;84.07
60246;BME280;46107;53.356;-1.524;2023-05-12T00:59:38;99572.00;;;8.48;84.11
60246;BME280;46107;53.356;-1.524;2023-05-12T01:02:06;99569.63;;;8.94;82.65
60246;BME280;46107;53.356;-1.524;2023-05-12T01:04:36;99573.08;;;9.20;82.22
60246;BME280;46107;53.356;-1.524;2023-05-12T01:07:09;99574.32;;;9.06;81.96
60246;BME280;46107;53.356;-1.524;2023-05-12T01:09:38;99577.64;;;8.98;81.96
60246;BME280;46107;53.356;-1.524;2023-05-12T01:12:06;99581.02;;;9.06;84.71
60246;BME280;46107;53.356;-1.524;2023-05-12T01:14:34;99587.44;;;8.10;85.60
60246;BME280;46107;53.356;-1.524;2023-05-12T01:17:07;99582.92;;;9.01;84.98
60246;BME280;46107;53.356;-1.524;2023-05-12T01:19:40;99591.66;;;8.24;86.14
60246;BME280;46107;53.356;-1.524;2023-05-12T01:22:11;99587.61;;;9.15;82.48
60246;BME280;46107;53.356;-1.524;2023-05-12T01:24:47;99588.04;;;8.54;83.10
60246;BME280;46107;53.356;-1.524;2023-05-12T01:27:17;99588.04;;;8.97;83.82
60246;BME280;46107;53.356;-1.524;2023-05-12T01:29:47;99591.61;;;8.62;83.69
60246;BME280;46107;53.356;-1.524;2023-05-12T01:32:16;99593.54;;;8.52;83.87
60246;BME280;46107;53.356;-1.524;2023-05-12T01:34:45;99597.52;;;8.72;82.86
60246;BME280;46107;53.356;-1.524;2023-05-12T01:37:13;99597.50;;;9.55;78.82
60246;BME280;46107;53.356;-1.524;2023-05-12T01:39:41;99599.93;;;9.73;80.10
60246;BME280;46107;53.356;-1.524;2023-05-12T01:42:09;99604.76;;;9.57;78.85
60246;BME280;46107;53.356;-1.524;2023-05-12T01:44:37;99608.22;;;8.97;81.24
60246;BME280;46107;53.356;-1.524;2023-05-12T01:47:04;99609.56;;;9.00;81.43
60246;BME280;46107;53.356;-1.524;2023-05-12T01:49:32;99607.27;;;9.19;81.67
60246;BME280;46107;53.356;-1.524;2023-05-12T01:52:00;99611.62;;;9.61;79.16
60246;BME280;46107;53.356;-1.524;2023-05-12T01:54:28;99613.19;;;9.12;79.60
60246;BME280;46107;53.356;-1.524;2023-05-12T01:56:56;99617.75;;;8.75;81.13
60246;BME280;46107;53.356;-1.524;2023-05-12T01:59:23;99618.76;;;9.53;80.51
60246;BME280;46107;53.356;-1.524;2023-05-12T02:01:51;99621.67;;;10.99;73.74
60246;BME280;46107;53.356;-1.524;2023-05-12T02:04:18;99624.22;;;9.22;78.95
60246;BME280;46107;53.356;-1.524;2023-05-12T02:06:45;99625.79;;;9.67;77.91
60246;BME280;46107;53.356;-1.524;2023-05-12T02:09:15;99627.28;;;8.36;79.88
60246;BME280;46107;53.356;-1.524;2023-05-12T02:11:45;99629.66;;;9.79;77.23
60246;BME280;46107;53.356;-1.524;2023-05-12T02:14:13;99635.77;;;8.93;80.24
60246;BME280;46107;53.356;-1.524;2023-05-12T02:16:40;99638.03;;;9.94;77.74
60246;BME280;46107;53.356;-1.524;2023-05-12T02:19:08;99637.91;;;9.58;77.42
60246;BME280;46107;53.356;-1.524;2023-05-12T02:21:36;99643.88;;;8.93;80.27
60246;BME280;46107;53.356;-1.524;2023-05-12T02:24:04;99648.12;;;9.19;80.90
60246;BME280;46107;53.356;-1.524;2023-05-12T02:26:31;99651.75;;;9.61;78.67
60246;BME280;46107;53.356;-1.524;2023-05-12T02:28:59;99647.97;;;9.80;76.99
60246;BME280;46107;53.356;-1.524;2023-05-12T02:31:26;99649.14;;;10.02;76.91
60246;BME280;46107;53.356;-1.524;2023-05-12T02:33:54;99656.13;;;8.41;81.80
60246;BME280;46107;53.356;-1.524;2023-05-12T02:36:21;99650.72;;;9.11;80.72
60246;BME280;46107;53.356;-1.524;2023-05-12T02:38:49;99659.17;;;7.87;84.28
60246;BME280;46107;53.356;-1.524;2023-05-12T02:41:17;99656.87;;;8.98;79.42
60246;BME280;46107;53.356;-1.524;2023-05-12T02:43:44;99659.24;;;8.83;80.11
60246;BME280;46107;53.356;-1.524;2023-05-12T02:46:12;99661.06;;;9.51;79.49
60246;BME280;46107;53.356;-1.524;2023-05-12T02:48:40;99658.55;;;9.30;79.45
60246;BME280;46107;53.356;-1.524;2023-05-12T02:51:09;99654.76;;;9.69;77.26
60246;BME280;46107;53.356;-1.524;2023-05-12T02:53:36;99662.02;;;8.63;80.80
60246;BME280;46107;53.356;-1.524;2023-05-12T02:56:06;99660.14;;;8.90;80.17
60246;BME280;46107;53.356;-1.524;2023-05-12T02:58:34;99661.15;;;8.99;79.49
60246;BME280;46107;53.356;-1.524;2023-05-12T03:01:01;99660.67;;;9.59;77.13
60246;BME280;46107;53.356;-1.524;2023-05-12T03:03:30;99669.65;;;7.70;82.93
60246;BME280;46107;53.356;-1.524;2023-05-12T03:05:58;99673.17;;;8.69;81.23
60246;BME280;46107;53.356;-1.524;2023-05-12T03:08:26;99676.65;;;7.87;86.04
60246;BME280;46107;53.356;-1.524;2023-05-12T03:10:54;99677.74;;;8.27;83.92
60246;BME280;46107;53.356;-1.524;2023-05-12T03:13:21;99679.45;;;7.53;85.58
60246;BME280;46107;53.356;-1.524;2023-05-12T03:15:48;99678.33;;;8.49;81.39
60246;BME280;46107;53.356;-1.524;2023-05-12T03:18:16;99675.84;;;9.05;79.39
60246;BME280;46107;53.356;-1.524;2023-05-12T03:20:43;99668.89;;;9.20;77.85
60246;BME280;46107;53.356;-1.524;2023-05-12T03:23:11;99668.02;;;9.72;76.32
60246;BME280;46107;53.356;-1.524;2023-05-12T03:25:38;99668.27;;;10.19;74.97
60246;BME280;46107;53.356;-1.524;2023-05-12T03:28:06;99670.35;;;9.47;75.64
60246;BME280;46107;53.356;-1.524;2023-05-12T03:30:34;99673.43;;;10.84;72.29
60246;BME280;46107;53.356;-1.524;2023-05-12T03:33:01;99674.27;;;10.16;72.20
60246;BME280;46107;53.356;-1.524;2023-05-12T03:35:29;99680.36;;;9.56;75.67
60246;BME280;46107;53.356;-1.524;2023-05-12T03:37:56;99681.59;;;8.35;79.31
60246;BME280;46107;53.356;-1.524;2023-05-12T03:40:24;99680.87;;;9.58;75.01
60246;BME280;46107;53.356;-1.524;2023-05-12T03:42:53;99684.14;;;8.94;76.59
60246;BME280;46107;53.356;-1.524;2023-05-12T03:45:21;99691.44;;;8.99;77.37
60246;BME280;46107;53.356;-1.524;2023-05-12T03:47:49;99687.48;;;9.09;76.27
60246;BME280;46107;53.356;-1.524;2023-05-12T03:50:17;99690.76;;;9.43;75.92
60246;BME280;46107;53.356;-1.524;2023-05-12T03:52:44;99690.80;;;10.31;72.29
60246;BME280;46107;53.356;-1.524;2023-05-12T03:55:14;99690.33;;;10.02;74.32
60246;BME280;46107;53.356;-1.524;2023-05-12T03:57:42;99693.67;;;7.53;83.20
60246;BME280;46107;53.356;-1.524;2023-05-12T04:00:11;99693.15;;;7.77;83.15
60246;BME280;46107;53.356;-1.524;2023-05-12T04:02:38;99690.13;;;9.50;78.23
60246;BME280;46107;53.356;-1.524;2023-05-12T04:05:07;99693.27;;;9.36;76.18
60246;BME280;46107;53.356;-1.524;2023-05-12T04:07:35;99694.68;;;9.29;77.85
60246;BME280;46107;53.356;-1.524;2023-05-12T04:10:03;99698.03;;;9.07;77.64
60246;BME280;46107;53.356;-1.524;2023-05-12T04:12:31;99695.67;;;9.27;75.95
60246;BME280;46107;53.356;-1.524;2023-05-12T04:14:59;99704.73;;;8.69;78.23
60246;BME280;46107;53.356;-1.524;2023-05-12T04:17:27;99707.37;;;8.66;80.39
60246;BME280;46107;53.356;-1.524;2023-05-12T04:19:55;99697.83;;;9.77;77.92
60246;BME280;46107;53.356;-1.524;2023-05-12T04:22:23;99707.29;;;8.05;81.57
60246;BME280;46107;53.356;-1.524;2023-05-12T04:24:50;99708.91;;;8.92;82.04
60246;BME280;46107;53.356;-1.524;2023-05-12T04:27:19;99710.64;;;9.12;80.13
60246;BME280;46107;53.356;-1.524;2023-05-12T04:29:46;99703.68;;;10.06;77.35
60246;BME280;46107;53.356;-1.524;2023-05-12T04:32:13;99709.56;;;9.05;78.68
60246;BME280;46107;53.356;-1.524;2023-05-12T04:34:40;99712.14;;;8.45;81.62
60246;BME280;46107;53.356;-1.524;2023-05-12T04:37:08;99713.45;;;8.50;83.26
60246;BME280;46107;53.356;-1.524;2023-05-12T04:39:36;99712.77;;;7.92;84.36
60246;BME280;46107;53.356;-1.524;2023-05-12T04:42:04;99715.28;;;8.33;83.88
60246;BME280;46107;53.356;-1.524;2023-05-12T04:44:32;99712.28;;;7.92;85.21
60246;BME280;46107;53.356;-1.524;2023-05-12T04:47:00;99724.15;;;8.96;81.27
60246;BME280;46107;53.356;-1.524;2023-05-12T04:49:28;99726.95;;;8.19;84.19
60246;BME280;46107;53.356;-1.524;2023-05-12T04:51:56;99726.18;;;8.66;82.89
60246;BME280;46107;53.356;-1.524;2023-05-12T04:54:24;99733.82;;;8.34;83.14
60246;BME280;46107;53.356;-1.524;2023-05-12T04:56:52;99732.41;;;7.53;85.82
60246;BME280;46107;53.356;-1.524;2023-05-12T04:59:19;99736.18;;;8.84;83.73
60246;BME280;46107;53.356;-1.524;2023-05-12T05:01:46;99740.94;;;8.22;83.55
60246;BME280;46107;53.356;-1.524;2023-05-12T05:04:15;99744.50;;;8.39;84.39
60246;BME280;46107;53.356;-1.524;2023-05-12T05:06:43;99749.42;;;8.38;83.22
60246;BME280;46107;53.356;-1.524;2023-05-12T05:09:10;99751.37;;;9.41;80.39
60246;BME280;46107;53.356;-1.524;2023-05-12T05:11:38;99752.40;;;7.82;84.78
60246;BME280;46107;53.356;-1.524;2023-05-12T05:14:06;99753.93;;;8.00;84.53
60246;BME280;46107;53.356;-1.524;2023-05-12T05:16:33;99761.71;;;9.17;80.80
60246;BME280;46107;53.356;-1.524;2023-05-12T05:19:01;99764.84;;;8.91;83.25
60246;BME280;46107;53.356;-1.524;2023-05-12T05:21:29;99769.30;;;9.45;78.92
60246;BME280;46107;53.356;-1.524;2023-05-12T05:23:57;99772.07;;;8.40;82.84
60246;BME280;46107;53.356;-1.524;2023-05-12T05:26:25;99776.65;;;9.14;81.61
60246;BME280;46107;53.356;-1.524;2023-05-12T05:28:52;99784.41;;;9.62;78.13
60246;BME280;46107;53.356;-1.524;2023-05-12T05:31:20;99791.29;;;9.01;79.56
60246;BME280;46107;53.356;-1.524;2023-05-12T05:33:50;99788.23;;;8.31;83.51
60246;BME280;46107;53.356;-1.524;2023-05-12T05:36:17;99799.80;;;8.83;81.62
60246;BME280;46107;53.356;-1.524;2023-05-12T05:38:45;99801.00;;;8.99;82.34
60246;BME280;46107;53.356;-1.524;2023-05-12T05:41:13;99804.32;;;9.10;81.37
60246;BME280;46107;53.356;-1.524;2023-05-12T05:43:41;99804.41;;;8.80;80.58
60246;BME280;46107;53.356;-1.524;2023-05-12T05:46:08;99808.47;;;8.89;82.39
60246;BME280;46107;53.356;-1.524;2023-05-12T05:48:36;99809.88;;;9.20;80.54
60246;BME280;46107;53.356;-1.524;2023-05-12T05:51:04;99808.88;;;8.78;80.45
60246;BME280;46107;53.356;-1.524;2023-05-12T05:53:32;99812.97;;;9.23;78.15
60246;BME280;46107;53.356;-1.524;2023-05-12T05:55:59;99816.92;;;8.54;81.07
60246;BME280;46107;53.356;-1.524;2023-05-12T05:58:27;99819.89;;;9.63;79.53
60246;BME280;46107;53.356;-1.524;2023-05-12T06:00:55;99823.56;;;8.19;81.29
60246;BME280;46107;53.356;-1.524;2023-05-12T06:03:22;99825.23;;;8.53;80.76
60246;BME280;46107;53.356;-1.524;2023-05-12T06:05:52;99832.95;;;8.86;79.42
60246;BME280;46107;53.356;-1.524;2023-05-12T06:08:20;99832.44;;;8.97;78.58
60246;BME280;46107;53.356;-1.524;2023-05-12T06:10:48;99832.08;;;9.20;79.22
60246;BME280;46107;53.356;-1.524;2023-05-12T06:13:17;99830.60;;;8.74;81.87
60246;BME280;46107;53.356;-1.524;2023-05-12T06:15:45;99834.48;;;9.57;79.90
60246;BME280;46107;53.356;-1.524;2023-05-12T06:18:13;99838.50;;;8.20;84.99
60246;BME280;46107;53.356;-1.524;2023-05-12T06:20:41;99839.40;;;8.88;82.60
60246;BME280;46107;53.356;-1.524;2023-05-12T06:23:09;99842.38;;;8.10;84.90
60246;BME280;46107;53.356;-1.524;2023-05-12T06:25:36;99843.95;;;8.38;83.69
60246;BME280;46107;53.356;-1.524;2023-05-12T06:28:03;99843.99;;;8.52;82.63
60246;BME280;46107;53.356;-1.524;2023-05-12T06:30:30;99847.07;;;8.75;82.80
60246;BME280;46107;53.356;-1.524;2023-05-12T06:33:00;99844.66;;;8.45;82.71
60246;BME280;46107;53.356;-1.524;2023-05-12T06:35:29;99854.31;;;9.48;80.15
60246;BME280;46107;53.356;-1.524;2023-05-12T06:37:56;99856.50;;;8.43;83.67
60246;BME280;46107;53.356;-1.524;2023-05-12T06:40:23;99858.52;;;8.84;83.75
60246;BME280;46107;53.356;-1.524;2023-05-12T06:42:51;99861.11;;;8.61;83.87
60246;BME280;46107;53.356;-1.524;2023-05-12T06:45:20;99864.85;;;9.00;81.81
60246;BME280;46107;53.356;-1.524;2023-05-12T06:47:47;99868.89;;;8.07;85.98
60246;BME280;46107;53.356;-1.524;2023-05-12T06:50:15;99867.79;;;8.35;84.06
60246;BME280;46107;53.356;-1.524;2023-05-12T06:52:42;99870.79;;;7.97;86.07
60246;BME280;46107;53.356;-1.524;2023-05-12T06:55:10;99873.69;;;8.09;84.46
60246;BME280;46107;53.356;-1.524;2023-05-12T06:57:38;99873.57;;;8.61;82.39
60246;BME280;46107;53.356;-1.524;2023-05-12T07:00:07;99872.66;;;8.27;84.62
60246;BME280;46107;53.356;-1.524;2023-05-12T07:02:35;99867.89;;;9.12;82.97
60246;BME280;46107;53.356;-1.524;2023-05-12T07:05:04;99873.60;;;8.00;86.05
60246;BME280;46107;53.356;-1.524;2023-05-12T07:07:31;99874.50;;;8.13;85.87
60246;BME280;46107;53.356;-1.524;2023-05-12T07:09:59;99875.65;;;8.19;85.89
60246;BME280;46107;53.356;-1.524;2023-05-12T07:12:26;99872.78;;;8.51;84.31
60246;BME280;46107;53.356;-1.524;2023-05-12T07:14:53;99874.13;;;8.10;84.25
60246;BME280;46107;53.356;-1.524;2023-05-12T07:17:21;99875.25;;;7.16;87.85
60246;BME280;46107;53.356;-1.524;2023-05-12T07:19:50;99874.03;;;8.90;82.90
60246;BME280;46107;53.356;-1.524;2023-05-12T07:22:17;99875.95;;;8.72;82.02
60246;BME280;46107;53.356;-1.524;2023-05-12T07:24:45;99874.99;;;8.30;82.27
60246;BME280;46107;53.356;-1.524;2023-05-12T07:27:14;99878.71;;;8.75;80.57
60246;BME280;46107;53.356;-1.524;2023-05-12T07:29:41;99883.84;;;8.48;81.62
60246;BME280;46107;53.356;-1.524;2023-05-12T07:32:08;99883.12;;;8.42;82.19
60246;BME280;46107;53.356;-1.524;2023-05-12T07:34:36;99888.64;;;8.63;80.84
60246;BME280;46107;53.356;-1.524;2023-05-12T07:37:04;99888.86;;;8.17;80.93
60246;BME280;46107;53.356;-1.524;2023-05-12T07:39:31;99888.28;;;8.95;81.21
60246;BME280;46107;53.356;-1.524;2023-05-12T07:41:59;99895.09;;;9.49;77.81
60246;BME280;46107;53.356;-1.524;2023-05-12T07:44:27;99897.06;;;9.26;78.02
60246;BME280;46107;53.356;-1.524;2023-05-12T07:46:54;99900.43;;;9.50;77.44
60246;BME280;46107;53.356;-1.524;2023-05-12T07:49:21;99894.19;;;9.02;79.43
60246;BME280;46107;53.356;-1.524;2023-05-12T07:51:49;99902.55;;;9.57;78.30
60246;BME280;46107;53.356;-1.524;2023-05-12T07:54:18;99901.48;;;8.53;81.16
60246;BME280;46107;53.356;-1.524;2023-05-12T07:56:46;99904.97;;;8.37;81.10
60246;BME280;46107;53.356;-1.524;2023-05-12T07:59:14;99904.05;;;9.18;79.80
60246;BME280;46107;53.356;-1.524;2023-05-12T08:01:42;99898.64;;;8.91;80.89
60246;BME280;46107;53.356;-1.524;2023-05-12T08:04:17;99901.34;;;8.77;81.33
60246;BME280;46107;53.356;-1.524;2023-05-12T08:06:45;99908.65;;;9.25;79.76
60246;BME280;46107;53.356;-1.524;2023-05-12T08:09:12;99907.18;;;9.26;79.49
60246;BME280;46107;53.356;-1.524;2023-05-12T08:11:40;99913.09;;;9.61;79.07
60246;BME280;46107;53.356;-1.524;2023-05-12T08:14:07;99911.40;;;9.70;79.44
60246;BME280;46107;53.356;-1.524;2023-05-12T08:16:35;99912.76;;;9.95;77.98
60246;BME280;46107;53.356;-1.524;2023-05-12T08:19:03;99909.79;;;9.21;79.11
60246;BME280;46107;53.356;-1.524;2023-05-12T08:21:30;99908.75;;;9.60;79.23
60246;BME280;46107;53.356;-1.524;2023-05-12T08:23:57;99916.05;;;10.30;76.71
60246;BME280;46107;53.356;-1.524;2023-05-12T08:26:25;99914.26;;;10.32;77.06
60246;BME280;46107;53.356;-1.524;2023-05-12T08:28:53;99910.20;;;9.69;79.25
60246;BME280;46107;53.356;-1.524;2023-05-12T08:31:21;99907.48;;;10.20;76.40
60246;BME280;46107;53.356;-1.524;2023-05-12T08:33:49;99908.22;;;9.88;76.54
60246;BME280;46107;53.356;-1.524;2023-05-12T08:36:16;99910.25;;;9.77;77.01
60246;BME280;46107;53.356;-1.524;2023-05-12T08:38:43;99914.44;;;9.95;78.01
60246;BME280;46107;53.356;-1.524;2023-05-12T08:41:18;99912.80;;;10.12;76.23
60246;BME280;46107;53.356;-1.524;2023-05-12T08:43:49;99912.67;;;9.67;76.33
60246;BME280;46107;53.356;-1.524;2023-05-12T08:46:17;99911.26;;;9.87;77.64
60246;BME280;46107;53.356;-1.524;2023-05-12T08:48:49;99917.10;;;10.47;77.12
60246;BME280;46107;53.356;-1.524;2023-05-12T08:51:18;99919.33;;;9.90;77.09
60246;BME280;46107;53.356;-1.524;2023-05-12T08:53:47;99917.85;;;10.52;74.33
60246;BME280;46107;53.356;-1.524;2023-05-12T08:56:17;99924.68;;;10.07;77.38
60246;BME280;46107;53.356;-1.524;2023-05-12T08:58:46;99928.94;;;10.06;78.63
60246;BME280;46107;53.356;-1.524;2023-05-12T09:01:16;99932.74;;;9.75;78.95
60246;BME280;46107;53.356;-1.524;2023-05-12T09:03:44;99930.89;;;9.91;77.88
60246;BME280;46107;53.356;-1.524;2023-05-12T09:06:13;99931.39;;;9.62;79.66
60246;BME280;46107;53.356;-1.524;2023-05-12T09:08:41;99926.89;;;9.22;81.30
60246;BME280;46107;53.356;-1.524;2023-05-12T09:11:10;99930.32;;;10.13;78.24
60246;BME280;46107;53.356;-1.524;2023-05-12T09:13:53;99924.10;;;10.20;77.59
60246;BME280;46107;53.356;-1.524;2023-05-12T09:16:24;99925.28;;;10.28;77.08
60246;BME280;46107;53.356;-1.524;2023-05-12T09:18:54;99927.72;;;9.84;77.71
60246;BME280;46107;53.356;-1.524;2023-05-12T09:21:22;99928.52;;;9.76;79.12
60246;BME280;46107;53.356;-1.524;2023-05-12T09:23:54;99930.20;;;9.83;77.93
60246;BME280;46107;53.356;-1.524;2023-05-12T09:26:23;99932.39;;;10.31;77.21
60246;BME280;46107;53.356;-1.524;2023-05-12T09:29:09;99936.11;;;9.25;80.19
60246;BME280;46107;53.356;-1.524;2023-05-12T09:31:37;99940.64;;;10.26;77.27
60246;BME280;46107;53.356;-1.524;2023-05-12T09:34:07;99936.57;;;11.02;70.40
60246;BME280;46107;53.356;-1.524;2023-05-12T09:36:35;99939.47;;;9.88;75.17
60246;BME280;46107;53.356;-1.524;2023-05-12T09:39:03;99938.37;;;10.22;74.08
60246;BME280;46107;53.356;-1.524;2023-05-12T09:41:45;99937.56;;;10.78;72.74
60246;BME280;46107;53.356;-1.524;2023-05-12T09:44:14;99940.63;;;9.92;77.29
60246;BME280;46107;53.356;-1.524;2023-05-12T09:46:42;99943.46;;;10.49;72.04
60246;BME280;46107;53.356;-1.524;2023-05-12T09:49:10;99944.42;;;9.58;75.53
60246;BME280;46107;53.356;-1.524;2023-05-12T09:51:39;99943.38;;;9.43;75.50
60246;BME280;46107;53.356;-1.524;2023-05-12T09:54:07;99949.27;;;10.53;72.70
60246;BME280;46107;53.356;-1.524;2023-05-12T09:56:37;99941.34;;;9.11;76.25
60246;BME280;46107;53.356;-1.524;2023-05-12T09:59:05;99950.35;;;9.54;74.04
60246;BME280;46107;53.356;-1.524;2023-05-12T10:01:32;99953.04;;;9.81;75.44
60246;BME280;46107;53.356;-1.524;2023-05-12T10:04:00;99957.16;;;9.74;73.89
60246;BME280;46107;53.356;-1.524;2023-05-12T10:06:32;99962.16;;;9.76;76.13
60246;BME280;46107;53.356;-1.524;2023-05-12T10:09:07;99960.37;;;10.33;74.72
60246;BME280;46107;53.356;-1.524;2023-05-12T10:11:36;99955.06;;;9.25;77.01
60246;BME280;46107;53.356;-1.524;2023-05-12T10:14:04;99953.07;;;9.72;76.71
60246;BME280;46107;53.356;-1.524;2023-05-12T10:16:33;99955.33;;;8.63;78.49
60246;BME280;46107;53.356;-1.524;2023-05-12T10:19:02;99954.89;;;9.28;79.53
60246;BME280;46107;53.356;-1.524;2023-05-12T10:21:29;99958.56;;;9.76;77.22
60246;BME280;46107;53.356;-1.524;2023-05-12T10:23:58;99959.84;;;9.78;76.74
60246;BME280;46107;53.356;-1.524;2023-05-12T10:26:27;99958.73;;;9.22;78.26
60246;BME280;46107;53.356;-1.524;2023-05-12T10:28:55;99957.44;;;9.15;78.44
60246;BME280;46107;53.356;-1.524;2023-05-12T10:31:23;99962.74;;;9.68;78.41
60246;BME280;46107;53.356;-1.524;2023-05-12T10:34:00;99960.28;;;9.63;77.01
60246;BME280;46107;53.356;-1.524;2023-05-12T10:36:29;99961.42;;;10.82;74.79
60246;BME280;46107;53.356;-1.524;2023-05-12T10:39:04;99962.93;;;10.06;75.40
60246;BME280;46107;53.356;-1.524;2023-05-12T10:41:32;99967.88;;;9.93;76.56
60246;BME280;46107;53.356;-1.524;2023-05-12T10:44:00;99964.52;;;9.49;78.92
60246;BME280;46107;53.356;-1.524;2023-05-12T10:46:28;99968.25;;;9.16;80.32
60246;BME280;46107;53.356;-1.524;2023-05-12T10:48:58;99971.38;;;9.39;78.08
60246;BME280;46107;53.356;-1.524;2023-05-12T10:51:27;99965.89;;;9.38;78.60
60246;BME280;46107;53.356;-1.524;2023-05-12T10:53:57;99976.45;;;10.19;77.32
60246;BME280;46107;53.356;-1.524;2023-05-12T10:56:27;99969.80;;;9.50;79.36
60246;BME280;46107;53.356;-1.524;2023-05-12T10:59:26;99973.87;;;9.88;78.28
60246;BME280;46107;53.356;-1.524;2023-05-12T11:01:56;99971.24;;;8.92;79.94
60246;BME280;46107;53.356;-1.524;2023-05-12T11:04:37;99970.33;;;9.48;78.03
60246;BME280;46107;53.356;-1.524;2023-05-12T11:07:06;99972.93;;;9.91;78.64
60246;BME280;46107;53.356;-1.524;2023-05-12T11:09:35;99973.45;;;10.75;73.86
60246;BME280;46107;53.356;-1.524;2023-05-12T11:12:04;99971.86;;;10.59;75.92
60246;BME280;46107;53.356;-1.524;2023-05-12T11:14:32;99976.14;;;10.06;76.26
60246;BME280;46107;53.356;-1.524;2023-05-12T11:17:00;99973.42;;;10.14;77.47
60246;BME280;46107;53.356;-1.524;2023-05-12T11:19:28;99973.10;;;8.94;80.08
60246;BME280;46107;53.356;-1.524;2023-05-12T11:21:56;99977.76;;;8.95;83.09
60246;BME280;46107;53.356;-1.524;2023-05-12T11:24:24;99976.33;;;9.40;81.25
60246;BME280;46107;53.356;-1.524;2023-05-12T11:26:51;99975.92;;;9.15;81.34
60246;BME280;46107;53.356;-1.524;2023-05-12T11:29:18;99979.09;;;8.70;82.84
60246;BME280;46107;53.356;-1.524;2023-05-12T11:31:47;99982.59;;;8.57;83.47
60246;BME280;46107;53.356;-1.524;2023-05-12T11:34:20;99985.62;;;8.99;80.79
60246;BME280;46107;53.356;-1.524;2023-05-12T11:36:50;99994.19;;;7.99;85.07
60246;BME280;46107;53.356;-1.524;2023-05-12T11:39:19;99993.15;;;9.82;79.72
60246;BME280;46107;53.356;-1.524;2023-05-12T11:41:48;99997.94;;;8.79;81.74
60246;BME280;46107;53.356;-1.524;2023-05-12T11:44:17;99997.74;;;9.25;81.35
60246;BME280;46107;53.356;-1.524;2023-05-12T11:47:02;100001.02;;;8.71;82.62
60246;BME280;46107;53.356;-1.524;2023-05-12T11:49:31;100004.54;;;9.32;81.22
60246;BME280;46107;53.356;-1.524;2023-05-12T11:52:00;100007.40;;;8.67;84.51
60246;BME280;46107;53.356;-1.524;2023-05-12T11:54:28;100004.28;;;9.15;82.32
60246;BME280;46107;53.356;-1.524;2023-05-12T11:56:56;100008.38;;;9.49;83.89
60246;BME280;46107;53.356;-1.524;2023-05-12T11:59:26;100010.93;;;8.15;84.20
60246;BME280;46107;53.356;-1.524;2023-05-12T12:01:55;100007.96;;;9.39;81.13
60246;BME280;46107;53.356;-1.524;2023-05-12T12:04:32;100012.90;;;8.36;86.18
60246;BME280;46107;53.356;-1.524;2023-05-12T12:06:59;100015.73;;;8.60;85.49
60246;BME280;46107;53.356;-1.524;2023-05-12T12:09:31;100015.05;;;8.59;84.84
60246;BME280;46107;53.356;-1.524;2023-05-12T12:12:00;100019.18;;;9.07;83.34
60246;BME280;46107;53.356;-1.524;2023-05-12T12:14:29;100016.06;;;9.47;82.21
60246;BME280;46107;53.356;-1.524;2023-05-12T12:16:58;100018.26;;;9.35;81.00
60246;BME280;46107;53.356;-1.524;2023-05-12T12:19:25;100022.73;;;8.73;82.94
60246;BME280;46107;53.356;-1.524;2023-05-12T12:21:54;100021.06;;;9.44;81.26
60246;BME280;46107;53.356;-1.524;2023-05-12T12:24:22;100016.52;;;9.86;79.73
60246;BME280;46107;53.356;-1.524;2023-05-12T12:26:50;100024.81;;;10.22;78.23
60246;BME280;46107;53.356;-1.524;2023-05-12T12:29:17;100030.49;;;9.47;80.89
60246;BME280;46107;53.356;-1.524;2023-05-12T12:31:45;100037.80;;;8.92;82.63
60246;BME280;46107;53.356;-1.524;2023-05-12T12:34:12;100031.30;;;9.44;82.11
60246;BME280;46107;53.356;-1.524;2023-05-12T12:36:40;100031.06;;;9.20;82.04
60246;BME280;46107;53.356;-1.524;2023-05-12T12:39:07;100034.94;;;9.60;79.90
60246;BME280;46107;53.356;-1.524;2023-05-12T12:41:35;100031.07;;;9.99;77.72
60246;BME280;46107;53.356;-1.524;2023-05-12T12:44:03;100031.35;;;9.12;79.97
60246;BME280;46107;53.356;-1.524;2023-05-12T12:46:31;100034.62;;;9.34;81.33
60246;BME280;46107;53.356;-1.524;2023-05-12T12:48:59;100035.56;;;9.29;80.79
60246;BME280;46107;53.356;-1.524;2023-05-12T12:51:27;100033.49;;;10.61;75.88
60246;BME280;46107;53.356;-1.524;2023-05-12T12:53:55;100041.40;;;10.12;77.13
60246;BME280;46107;53.356;-1.524;2023-05-12T12:56:23;100036.83;;;10.23;77.61
60246;BME280;46107;53.356;-1.524;2023-05-12T12:58:51;100037.10;;;9.19;79.83
60246;BME280;46107;53.356;-1.524;2023-05-12T13:01:18;100033.12;;;9.41;79.80
60246;BME280;46107;53.356;-1.524;2023-05-12T13:03:46;100038.13;;;10.12;78.15